createdAt,value
2018-01-12T00:01:31.062Z,73.50
2018-01-12T00:06:34.498Z,67.27
2018-01-12T00:11:37.172Z,69.23
2018-01-12T00:16:40.685Z,68.33
2018-01-12T00:21:43.396Z,63.20
2018-01-12T00:26:47.047Z,68.77
2018-01-12T00:31:49.760Z,65.97
2018-01-12T00:36:53.237Z,61.10
2018-01-12T00:41:56.333Z,67.23
2018-01-12T00:46:59.171Z,66.03
2018-01-12T00:52:01.888Z,69.03
2018-01-12T00:57:04.777Z,67.63
2018-01-12T01:02:07.694Z,68.00
2018-01-12T01:07:10.856Z,63.13
2018-01-12T01:12:13.660Z,64.33
2018-01-12T01:17:16.738Z,67.20
2018-01-12T01:22:20.189Z,74.97
2018-01-12T01:27:24.429Z,70.43
2018-01-12T01:32:27.258Z,74.77
2018-01-12T01:37:30.767Z,72.10
2018-01-12T01:42:33.421Z,75.83
2018-01-12T01:47:36.802Z,79.83
2018-01-12T01:52:39.438Z,70.00
2018-01-12T01:57:43.807Z,76.97
2018-01-12T02:02:46.707Z,73.30
2018-01-12T02:07:49.618Z,78.27
2018-01-12T02:12:52.309Z,78.27
2018-01-12T02:17:55.857Z,76.80
2018-01-12T02:22:58.575Z,73.70
2018-01-12T02:28:02.363Z,71.50
2018-01-12T02:33:05.142Z,72.60
2018-01-12T02:38:09.142Z,69.27
2018-01-12T02:43:11.837Z,66.07
2018-01-12T02:48:15.476Z,75.60
2018-01-12T02:53:18.174Z,75.30
2018-01-12T02:58:21.563Z,71.77
2018-01-12T03:03:24.217Z,68.27
2018-01-12T03:08:28.674Z,64.20
2018-01-12T03:13:31.311Z,64.50
2018-01-12T03:18:34.662Z,61.53
2018-01-12T03:23:38.121Z,61.00
2018-01-12T03:28:40.966Z,63.20
2018-01-12T03:33:43.641Z,66.57
2018-01-12T03:38:47.227Z,59.00
2018-01-12T03:43:49.915Z,61.40
2018-01-12T03:48:54.294Z,62.63
2018-01-12T03:53:57.073Z,60.13
2018-01-12T03:59:00.513Z,56.87
2018-01-12T04:04:03.223Z,60.33
2018-01-12T04:09:07.642Z,61.83
2018-01-12T04:14:10.361Z,58.67
2018-01-12T04:19:15.005Z,61.10
2018-01-12T04:24:17.630Z,59.63
2018-01-12T04:29:21.197Z,57.63
2018-01-12T04:34:23.850Z,55.70
2018-01-12T04:39:27.217Z,53.70
2018-01-12T04:44:30.045Z,55.20
2018-01-12T04:49:33.196Z,54.20
2018-01-12T04:54:36.742Z,59.17
2018-01-12T04:59:39.975Z,58.43
2018-01-12T05:04:42.757Z,58.97
2018-01-12T05:09:45.929Z,59.40
2018-01-12T05:14:48.675Z,58.80
2018-01-12T05:19:51.393Z,54.40
2018-01-12T05:24:54.049Z,52.57
2018-01-12T05:29:57.700Z,53.23
2018-01-12T05:35:00.503Z,51.80
2018-01-12T05:40:03.303Z,50.97
2018-01-12T05:45:05.991Z,50.77
2018-01-12T05:50:09.680Z,51.00
2018-01-12T05:55:12.455Z,54.47
2018-01-12T06:00:16.043Z,50.07
2018-01-12T06:05:31.197Z,49.63
2018-01-12T06:10:35.101Z,49.23
2018-01-12T06:15:37.854Z,49.27
2018-01-12T06:20:42.393Z,47.70
2018-01-12T06:25:45.989Z,44.83
2018-01-12T06:30:49.244Z,46.43
2018-01-12T06:35:52.658Z,43.13
2018-01-12T06:40:55.479Z,43.57
2018-01-12T06:45:59.416Z,41.50
2018-01-12T06:51:02.611Z,39.90
2018-01-12T06:56:05.516Z,41.90
2018-01-12T07:01:08.728Z,40.67
2018-01-12T07:06:11.532Z,41.93
2018-01-12T07:11:14.825Z,41.17
2018-01-12T07:16:19.209Z,42.63
2018-01-12T07:21:34.634Z,41.73
2018-01-12T07:26:37.248Z,39.93
2018-01-12T07:31:40.468Z,42.07
2018-01-12T07:36:43.933Z,42.33
2018-01-12T07:41:46.651Z,41.37
2018-01-12T07:46:49.320Z,41.40
2018-01-12T07:51:53.037Z,40.83
2018-01-12T07:56:55.714Z,39.80
2018-01-12T08:02:05.504Z,39.90
2018-01-12T08:07:08.218Z,39.77
2018-01-12T08:12:12.036Z,39.97
2018-01-12T08:17:14.850Z,37.57
2018-01-12T08:22:17.853Z,37.70
2018-01-12T08:27:20.752Z,39.43
2018-01-12T08:32:23.870Z,42.93
2018-01-12T08:37:26.585Z,43.03
2018-01-12T08:42:29.867Z,38.57
2018-01-12T08:47:33.457Z,37.83
2018-01-12T08:52:37.277Z,39.40
2018-01-12T08:57:40.015Z,41.20
2018-01-12T09:02:44.661Z,40.20
2018-01-12T09:07:48.676Z,41.70
2018-01-12T09:12:52.643Z,40.57
2018-01-12T09:17:55.442Z,41.00
2018-01-12T09:22:58.987Z,44.47
2018-01-12T09:28:01.655Z,41.27
2018-01-12T09:33:04.861Z,39.73
2018-01-12T09:38:19.854Z,41.27
2018-01-12T09:43:23.064Z,40.67
2018-01-12T09:48:26.868Z,43.00
2018-01-12T09:53:31.174Z,39.27
2018-01-12T09:58:34.814Z,40.33
2018-01-12T10:03:37.886Z,39.00
2018-01-12T10:08:42.162Z,40.50
2018-01-12T10:13:46.024Z,47.17
2018-01-12T10:18:53.475Z,40.57
2018-01-12T10:23:57.151Z,36.67
2018-01-12T10:29:07.454Z,39.73
2018-01-12T10:34:10.655Z,36.17
2018-01-12T10:39:22.581Z,39.43
2018-01-12T10:44:25.986Z,40.80
2018-01-12T10:49:28.878Z,40.63
2018-01-12T10:54:32.590Z,43.03
2018-01-12T10:59:36.229Z,40.20
2018-01-12T11:04:40.567Z,40.17
2018-01-12T11:09:45.648Z,42.43
2018-01-12T11:14:49.290Z,41.60
2018-01-12T11:19:52.006Z,43.07
2018-01-12T11:24:55.505Z,39.93
2018-01-12T11:29:58.323Z,44.00
2018-01-12T11:35:02.197Z,40.57
2018-01-12T11:40:04.904Z,38.93
2018-01-12T11:45:07.682Z,41.67
2018-01-12T11:50:11.144Z,42.53
2018-01-12T11:55:14.861Z,40.17
2018-01-12T12:00:17.564Z,41.80
2018-01-12T12:05:20.548Z,41.07
2018-01-12T12:10:23.979Z,41.53
2018-01-12T12:15:27.625Z,41.03
2018-01-12T12:20:30.385Z,44.63
2018-01-12T12:25:34.724Z,39.10
2018-01-12T12:30:38.246Z,42.63
2018-01-12T12:35:41.832Z,42.53
2018-01-12T12:40:45.290Z,42.80
2018-01-12T12:45:48.997Z,38.40
2018-01-12T12:50:52.550Z,39.13
2018-01-12T12:55:56.165Z,38.00
2018-01-12T13:00:58.953Z,40.10
2018-01-12T13:06:03.024Z,42.13
2018-01-12T13:11:05.979Z,41.80
2018-01-12T13:16:09.746Z,42.27
2018-01-12T13:21:12.420Z,40.90
2018-01-12T13:26:15.892Z,42.73
2018-01-12T13:31:18.744Z,41.33
2018-01-12T13:36:21.956Z,42.80
2018-01-12T13:41:24.600Z,43.33
2018-01-12T13:46:27.907Z,41.60
2018-01-12T13:51:30.567Z,41.87
2018-01-12T13:56:34.188Z,45.70
2018-01-12T14:01:36.902Z,42.87
2018-01-12T14:06:40.149Z,42.67
2018-01-12T14:11:42.902Z,42.27
2018-01-12T14:16:46.697Z,48.70
2018-01-12T14:21:49.438Z,43.20
2018-01-12T14:26:52.840Z,44.50
2018-01-12T14:31:56.474Z,44.67
2018-01-12T14:36:59.680Z,44.27
2018-01-12T14:42:02.339Z,43.97
2018-01-12T14:47:05.232Z,44.53
2018-01-12T14:52:08.029Z,46.53
2018-01-12T14:57:11.514Z,46.20
2018-01-12T15:02:14.221Z,43.50
2018-01-12T15:07:17.517Z,46.90
2018-01-12T15:12:20.952Z,46.13
2018-01-12T15:17:24.866Z,49.80
2018-01-12T15:22:27.573Z,47.97
2018-01-12T15:27:31.291Z,46.27
2018-01-12T15:32:34.858Z,48.40
2018-01-12T15:37:43.972Z,48.10
2018-01-12T15:42:46.658Z,54.67
2018-01-12T15:47:50.619Z,51.07
2018-01-12T15:52:53.272Z,51.63
2018-01-12T15:57:57.035Z,52.40
2018-01-12T16:02:59.687Z,53.03
2018-01-12T16:08:04.189Z,49.03
2018-01-12T16:13:06.808Z,49.37
2018-01-12T16:18:10.317Z,53.13
2018-01-12T16:23:13.085Z,49.77
2018-01-12T16:28:16.503Z,51.57
2018-01-12T16:33:19.171Z,49.27
2018-01-12T16:38:23.367Z,51.83
2018-01-12T16:43:26.159Z,51.70
2018-01-12T16:48:29.814Z,53.37
2018-01-12T16:53:32.474Z,52.67
2018-01-12T16:58:35.800Z,52.60
2018-01-12T17:03:38.584Z,50.37
2018-01-12T17:08:41.892Z,49.47
2018-01-12T17:13:44.505Z,47.43
2018-01-12T17:18:48.039Z,44.30
2018-01-12T17:23:51.420Z,44.03
2018-01-12T17:28:55.892Z,49.97
2018-01-12T17:33:58.594Z,48.77
2018-01-12T17:39:02.914Z,48.27
2018-01-12T17:44:05.581Z,50.67
2018-01-12T17:49:09.963Z,47.50
2018-01-12T17:54:12.631Z,48.43
2018-01-12T17:59:16.060Z,45.80
2018-01-12T18:04:19.511Z,48.87
2018-01-12T18:09:22.341Z,46.13
2018-01-12T18:14:25.189Z,48.17
2018-01-12T18:19:28.085Z,46.87
2018-01-12T18:24:30.850Z,43.70
2018-01-12T18:29:34.005Z,45.33
2018-01-12T18:34:37.419Z,46.47
2018-01-12T18:39:41.148Z,46.87
2018-01-12T18:44:44.046Z,45.00
2018-01-12T18:49:47.136Z,46.57
2018-01-12T18:54:51.601Z,45.23
2018-01-12T18:59:54.477Z,45.10
2018-01-12T19:04:58.745Z,46.73
2018-01-12T19:10:02.581Z,48.40
2018-01-12T19:15:05.545Z,48.27
2018-01-12T19:20:09.523Z,46.60
2018-01-12T19:25:12.637Z,46.40
2018-01-12T19:30:16.340Z,45.63
2018-01-12T19:35:19.052Z,46.30
2018-01-12T19:40:22.417Z,46.50
2018-01-12T19:45:25.269Z,48.30
2018-01-12T19:50:28.268Z,46.10
2018-01-12T19:55:31.069Z,49.20
2018-01-12T20:00:34.487Z,47.47
2018-01-12T20:05:37.197Z,48.00
2018-01-12T20:10:40.733Z,48.10
2018-01-12T20:15:43.398Z,51.83
2018-01-12T20:20:46.536Z,50.53
2018-01-12T20:25:49.323Z,52.67
2018-01-12T20:30:52.553Z,52.77
2018-01-12T20:35:55.537Z,49.73
2018-01-12T20:40:58.444Z,50.33
2018-01-12T20:46:01.247Z,51.70
2018-01-12T20:51:05.059Z,51.13
2018-01-12T20:56:07.879Z,51.20
2018-01-12T21:01:12.320Z,51.70
2018-01-12T21:06:15.229Z,52.83
2018-01-12T21:11:18.335Z,52.87
2018-01-12T21:16:22.669Z,54.37
2018-01-12T21:21:28.450Z,50.97
2018-01-12T21:26:31.366Z,49.17
2018-01-12T21:31:35.043Z,50.43
2018-01-12T21:36:37.733Z,49.07
2018-01-12T21:41:41.400Z,50.40
2018-01-12T21:46:44.095Z,52.83
2018-01-12T21:51:47.207Z,50.77
2018-01-12T21:56:50.995Z,50.93
2018-01-12T22:01:53.904Z,49.50
2018-01-12T22:06:56.601Z,47.53
2018-01-12T22:11:59.604Z,47.43
2018-01-12T22:17:07.791Z,47.90
2018-01-12T22:22:10.884Z,49.40
2018-01-12T22:27:13.596Z,49.73
2018-01-12T22:32:16.977Z,49.73
2018-01-12T22:37:20.516Z,50.13
2018-01-12T22:42:23.423Z,50.60
2018-01-12T22:47:26.253Z,48.90
2018-01-12T22:52:29.256Z,50.63
2018-01-12T22:57:32.165Z,48.33
2018-01-12T23:02:35.203Z,50.43
2018-01-12T23:07:38.051Z,50.50
2018-01-12T23:12:41.330Z,51.70
2018-01-12T23:17:44.088Z,51.47
2018-01-12T23:22:47.993Z,53.03
2018-01-12T23:27:51.700Z,53.70
2018-01-12T23:32:54.803Z,52.90
2018-01-12T23:37:58.596Z,52.67
2018-01-12T23:43:01.908Z,52.13
2018-01-12T23:48:04.735Z,51.57
2018-01-12T23:53:10.042Z,50.13
2018-01-12T23:58:12.840Z,50.83
